Dickinson, ND (58601)

6:55 PM MDT on August 30, 2015 (GMT -0600)
Southview | | Change Station
CLOSE
Current Station
Personal Weather Station
Location: Dickinson, ND
Elevation: 2434 ft
Nearby Weather Stations

Elev 2434 ft 46.86 °N, 102.78 °W | Updated 6 minutes ago

Clear
Clear
79.1 °F
Feels Like 79 °F
N
5.8
Wind Variable Wind from North

Today
High -- | Low -- °F
--% Chance of Precip.
Yesterday
High -- | Low -- °F
Precip. -- in
6:07 AM 7:34 PM
Full, 98% visible
Pressure 29.67 in
Visibility 5.0 miles
Clouds Clear
Heat Index 79 °F
Dew Point 50 °F
Humidity 36%
Rainfall 0.00 in
Snow Depth Not available.
UV 2 out of 12
Pollen 11.30 out of 12
Air Quality Not available.
Flu Activity Not available.
METAR KDIK 302256Z AUTO 34012KT 5SM HZ CLR 31/10 A2973 RMK AO2 SLP047 T03060100 $
Pressure 29.67 in
Visibility 5.0 miles
Clouds Clear
Heat Index 79 °F
Dew Point 50 °F
Humidity 36%
Rainfall 0.00 in
Snow Depth Not available.
UV 2 out of 12
Pollen 11.30 out of 12
Air Quality Not available.
Flu Activity Not available.
METAR KDIK 302256Z AUTO 34012KT 5SM HZ CLR 31/10 A2973 RMK AO2 SLP047 T03060100 $

10-Day Weather Forecast

×

Almanac

Astronomy

Aug. 30, 2015 Rise Set
Actual Time
Civil Twilight
Nautical Twilight
Astronomical Twilight
Moon
Length of Visible Light
Length of Day
Tomorrow will be .
, % of the Moon is Illuminated

Today's Extremes

State Highs State Lows

Community

WunderPhotos

Upload Photos

1,851,116 photos uploaded!

WunderBlogs® & News

Nearby

Air Quality

  Air Quality AQ Index Pollutant
Not available.

Snow Depth

Station Depth Elevation

Earthquake Activity

City Distance Mag. Time & Date
Minimum magnitude displayed is 2.5.

Coastal Water Temperatures

Place Temperature

Stations

Nearby Weather Stations

Station Location Temp. Windchill Dew Point Humidity Wind Precip. Elev Updated Type